sensor_id;sensor_type;location;lat;lon;timestamp;pressure;altitude;pressure_sealevel;temperature;humidity
34500;BME280;20745;50.882;6.962;2023-02-28T00:00:29;102312.13;;;2.25;83.41
34500;BME280;20745;50.882;6.962;2023-02-28T00:02:56;102321.22;;;2.21;84.33
34500;BME280;20745;50.882;6.962;2023-02-28T00:05:24;102315.41;;;2.14;84.21
34500;BME280;20745;50.882;6.962;2023-02-28T00:07:51;102319.03;;;2.13;84.55
34500;BME280;20745;50.882;6.962;2023-02-28T00:10:20;102319.94;;;2.12;83.85
34500;BME280;20745;50.882;6.962;2023-02-28T00:12:48;102308.84;;;2.20;83.93
34500;BME280;20745;50.882;6.962;2023-02-28T00:15:15;102316.06;;;2.18;83.00
34500;BME280;20745;50.882;6.962;2023-02-28T00:17:42;102302.16;;;2.13;83.58
34500;BME280;20745;50.882;6.962;2023-02-28T00:20:10;102309.13;;;2.15;84.20
34500;BME280;20745;50.882;6.962;2023-02-28T00:22:39;102305.31;;;2.19;83.58
34500;BME280;20745;50.882;6.962;2023-02-28T00:25:07;102311.94;;;2.12;83.12
34500;BME280;20745;50.882;6.962;2023-02-28T00:27:36;102313.47;;;2.16;83.80
34500;BME280;20745;50.882;6.962;2023-02-28T00:30:03;102313.88;;;2.10;83.79
34500;BME280;20745;50.882;6.962;2023-02-28T00:32:31;102314.63;;;2.12;83.54
34500;BME280;20745;50.882;6.962;2023-02-28T00:34:57;102313.69;;;2.13;83.80
34500;BME280;20745;50.882;6.962;2023-02-28T00:37:24;102309.47;;;2.09;83.76
34500;BME280;20745;50.882;6.962;2023-02-28T00:39:50;102314.22;;;2.04;84.38
34500;BME280;20745;50.882;6.962;2023-02-28T00:42:17;102303.31;;;1.93;83.85
34500;BME280;20745;50.882;6.962;2023-02-28T00:44:43;102315.78;;;1.93;84.54
34500;BME280;20745;50.882;6.962;2023-02-28T00:47:10;102318.53;;;1.91;85.00
34500;BME280;20745;50.882;6.962;2023-02-28T00:49:37;102316.66;;;1.93;84.59
34500;BME280;20745;50.882;6.962;2023-02-28T00:52:03;102313.13;;;1.93;84.36
34500;BME280;20745;50.882;6.962;2023-02-28T00:54:30;102314.31;;;1.87;84.98
34500;BME280;20745;50.882;6.962;2023-02-28T00:56:56;102308.91;;;1.89;84.09
34500;BME280;20745;50.882;6.962;2023-02-28T00:59:23;102325.06;;;1.86;84.49
34500;BME280;20745;50.882;6.962;2023-02-28T01:01:49;102319.56;;;1.89;84.41
34500;BME280;20745;50.882;6.962;2023-02-28T01:04:19;102318.13;;;1.83;84.54
34500;BME280;20745;50.882;6.962;2023-02-28T01:06:45;102324.19;;;1.85;84.55
34500;BME280;20745;50.882;6.962;2023-02-28T01:09:12;102320.94;;;1.80;84.15
34500;BME280;20745;50.882;6.962;2023-02-28T01:11:38;102324.72;;;1.76;84.60
34500;BME280;20745;50.882;6.962;2023-02-28T01:14:08;102327.81;;;1.84;84.20
34500;BME280;20745;50.882;6.962;2023-02-28T01:16:35;102318.38;;;1.79;84.87
34500;BME280;20745;50.882;6.962;2023-02-28T01:19:01;102324.38;;;1.82;84.59
34500;BME280;20745;50.882;6.962;2023-02-28T01:21:28;102321.72;;;1.82;84.38
34500;BME280;20745;50.882;6.962;2023-02-28T01:23:57;102316.63;;;1.78;84.74
34500;BME280;20745;50.882;6.962;2023-02-28T01:26:24;102319.03;;;1.82;84.61
34500;BME280;20745;50.882;6.962;2023-02-28T01:28:52;102319.56;;;1.89;85.19
34500;BME280;20745;50.882;6.962;2023-02-28T01:31:20;102316.38;;;1.82;84.01
34500;BME280;20745;50.882;6.962;2023-02-28T01:33:47;102312.66;;;1.85;84.08
34500;BME280;20745;50.882;6.962;2023-02-28T01:36:20;102315.06;;;1.89;84.67
34500;BME280;20745;50.882;6.962;2023-02-28T01:38:47;102324.97;;;1.87;84.03
34500;BME280;20745;50.882;6.962;2023-02-28T01:41:19;102311.66;;;1.87;84.30
34500;BME280;20745;50.882;6.962;2023-02-28T01:46:13;102308.22;;;1.85;84.60
34500;BME280;20745;50.882;6.962;2023-02-28T01:48:54;102306.50;;;1.84;84.69
34500;BME280;20745;50.882;6.962;2023-02-28T01:51:46;102315.63;;;1.80;84.37
34500;BME280;20745;50.882;6.962;2023-02-28T01:54:24;102317.16;;;1.84;84.46
34500;BME280;20745;50.882;6.962;2023-02-28T01:56:56;102302.13;;;1.83;84.91
34500;BME280;20745;50.882;6.962;2023-02-28T01:59:39;102312.19;;;1.78;84.58
34500;BME280;20745;50.882;6.962;2023-02-28T02:02:16;102315.63;;;1.80;85.05
34500;BME280;20745;50.882;6.962;2023-02-28T02:05:08;102302.22;;;1.82;84.75
34500;BME280;20745;50.882;6.962;2023-02-28T02:07:37;102299.72;;;1.79;84.44
34500;BME280;20745;50.882;6.962;2023-02-28T02:18:46;102297.91;;;1.64;85.60
34500;BME280;20745;50.882;6.962;2023-02-28T02:21:35;102300.00;;;1.59;84.89
34500;BME280;20745;50.882;6.962;2023-02-28T02:24:18;102291.38;;;1.54;85.34
34500;BME280;20745;50.882;6.962;2023-02-28T02:30:20;102291.63;;;1.49;86.20
34500;BME280;20745;50.882;6.962;2023-02-28T02:35:55;102282.91;;;1.47;84.31
34500;BME280;20745;50.882;6.962;2023-02-28T02:38:35;102288.22;;;1.47;86.25
34500;BME280;20745;50.882;6.962;2023-02-28T02:41:13;102288.13;;;1.49;86.46
34500;BME280;20745;50.882;6.962;2023-02-28T02:43:51;102284.69;;;1.47;86.39
34500;BME280;20745;50.882;6.962;2023-02-28T02:46:32;102280.66;;;1.40;86.46
34500;BME280;20745;50.882;6.962;2023-02-28T02:49:04;102288.47;;;1.43;86.68
34500;BME280;20745;50.882;6.962;2023-02-28T02:51:33;102287.78;;;1.39;86.21
34500;BME280;20745;50.882;6.962;2023-02-28T02:54:37;102288.81;;;1.37;86.68
34500;BME280;20745;50.882;6.962;2023-02-28T02:57:03;102285.38;;;1.35;86.21
34500;BME280;20745;50.882;6.962;2023-02-28T02:59:32;102282.91;;;1.32;86.23
34500;BME280;20745;50.882;6.962;2023-02-28T03:02:03;102289.16;;;1.31;86.82
34500;BME280;20745;50.882;6.962;2023-02-28T03:04:34;102293.53;;;1.32;85.96
34500;BME280;20745;50.882;6.962;2023-02-28T03:07:01;102290.19;;;1.28;85.80
34500;BME280;20745;50.882;6.962;2023-02-28T03:09:27;102282.97;;;1.30;85.25
34500;BME280;20745;50.882;6.962;2023-02-28T03:11:55;102272.59;;;1.26;85.25
34500;BME280;20745;50.882;6.962;2023-02-28T03:14:56;102283.56;;;1.35;84.42
34500;BME280;20745;50.882;6.962;2023-02-28T03:20:16;102278.41;;;1.32;84.77
34500;BME280;20745;50.882;6.962;2023-02-28T03:23:14;102275.75;;;1.32;84.48
34500;BME280;20745;50.882;6.962;2023-02-28T03:28:19;102272.16;;;1.33;83.07
34500;BME280;20745;50.882;6.962;2023-02-28T03:31:17;102274.03;;;1.31;83.68
34500;BME280;20745;50.882;6.962;2023-02-28T03:33:53;102269.22;;;1.22;83.05
34500;BME280;20745;50.882;6.962;2023-02-28T03:36:32;102273.00;;;1.18;83.88
34500;BME280;20745;50.882;6.962;2023-02-28T03:39:05;102258.22;;;1.13;83.46
34500;BME280;20745;50.882;6.962;2023-02-28T03:41:40;102269.91;;;1.10;83.88
34500;BME280;20745;50.882;6.962;2023-02-28T03:44:13;102232.97;;;0.89;83.77
34500;BME280;20745;50.882;6.962;2023-02-28T03:46:52;102273.25;;;1.14;83.58
34500;BME280;20745;50.882;6.962;2023-02-28T03:49:32;102267.69;;;1.18;82.89
34500;BME280;20745;50.882;6.962;2023-02-28T03:52:02;102272.50;;;1.12;83.31
34500;BME280;20745;50.882;6.962;2023-02-28T03:54:34;102271.38;;;1.16;83.23
34500;BME280;20745;50.882;6.962;2023-02-28T03:57:12;102274.03;;;1.16;82.76
34500;BME280;20745;50.882;6.962;2023-02-28T03:59:48;102280.03;;;1.19;82.41
34500;BME280;20745;50.882;6.962;2023-02-28T04:02:18;102265.59;;;1.08;83.14
34500;BME280;20745;50.882;6.962;2023-02-28T04:04:45;102275.91;;;1.14;83.33
34500;BME280;20745;50.882;6.962;2023-02-28T04:07:15;102271.63;;;1.11;82.41
34500;BME280;20745;50.882;6.962;2023-02-28T04:09:42;102279.03;;;1.22;82.68
34500;BME280;20745;50.882;6.962;2023-02-28T04:12:08;102273.16;;;1.15;82.41
34500;BME280;20745;50.882;6.962;2023-02-28T04:14:35;102282.78;;;1.18;82.31
34500;BME280;20745;50.882;6.962;2023-02-28T04:17:01;102281.94;;;1.17;81.83
34500;BME280;20745;50.882;6.962;2023-02-28T04:19:28;102287.09;;;1.20;81.58
34500;BME280;20745;50.882;6.962;2023-02-28T04:21:55;102287.09;;;1.20;82.17
34500;BME280;20745;50.882;6.962;2023-02-28T04:24:24;102291.00;;;1.13;80.88
34500;BME280;20745;50.882;6.962;2023-02-28T04:26:52;102286.38;;;1.17;82.31
34500;BME280;20745;50.882;6.962;2023-02-28T04:29:21;102285.56;;;0.99;82.78
34500;BME280;20745;50.882;6.962;2023-02-28T04:31:49;102290.28;;;0.94;82.63
34500;BME280;20745;50.882;6.962;2023-02-28T04:34:16;102287.34;;;0.83;82.49
34500;BME280;20745;50.882;6.962;2023-02-28T04:36:43;102283.59;;;0.87;83.81
34500;BME280;20745;50.882;6.962;2023-02-28T04:39:09;102287.31;;;1.00;82.06
34500;BME280;20745;50.882;6.962;2023-02-28T04:41:36;102293.06;;;1.08;80.52
34500;BME280;20745;50.882;6.962;2023-02-28T04:44:02;102301.44;;;1.01;80.43
34500;BME280;20745;50.882;6.962;2023-02-28T04:46:29;102292.72;;;0.99;79.97
34500;BME280;20745;50.882;6.962;2023-02-28T04:48:56;102289.63;;;1.06;80.48
34500;BME280;20745;50.882;6.962;2023-02-28T04:51:23;102294.78;;;1.09;79.95
34500;BME280;20745;50.882;6.962;2023-02-28T04:53:49;102295.72;;;1.08;79.63
34500;BME280;20745;50.882;6.962;2023-02-28T04:56:17;102296.06;;;1.02;79.25
34500;BME280;20745;50.882;6.962;2023-02-28T04:58:44;102310.75;;;1.09;80.08
34500;BME280;20745;50.882;6.962;2023-02-28T05:01:26;102304.97;;;1.01;79.25
34500;BME280;20745;50.882;6.962;2023-02-28T05:03:56;102304.19;;;0.99;79.62
34500;BME280;20745;50.882;6.962;2023-02-28T05:06:25;102306.84;;;0.99;79.75
34500;BME280;20745;50.882;6.962;2023-02-28T05:08:53;102297.50;;;0.92;80.21
34500;BME280;20745;50.882;6.962;2023-02-28T05:11:22;102312.09;;;1.01;80.04
34500;BME280;20745;50.882;6.962;2023-02-28T05:13:50;102306.09;;;0.97;80.02
34500;BME280;20745;50.882;6.962;2023-02-28T05:16:17;102308.91;;;0.94;80.11
34500;BME280;20745;50.882;6.962;2023-02-28T05:18:45;102272.28;;;0.67;80.06
34500;BME280;20745;50.882;6.962;2023-02-28T05:21:25;102309.25;;;0.88;80.31
34500;BME280;20745;50.882;6.962;2023-02-28T05:23:52;102313.75;;;0.86;80.51
34500;BME280;20745;50.882;6.962;2023-02-28T05:26:19;102307.69;;;0.84;79.72
34500;BME280;20745;50.882;6.962;2023-02-28T05:28:46;102305.34;;;0.78;80.66
34500;BME280;20745;50.882;6.962;2023-02-28T05:31:13;102306.75;;;0.85;80.00
34500;BME280;20745;50.882;6.962;2023-02-28T05:33:40;102303.69;;;0.93;79.75
34500;BME280;20745;50.882;6.962;2023-02-28T05:36:07;102299.47;;;0.89;79.29
34500;BME280;20745;50.882;6.962;2023-02-28T05:38:33;102303.13;;;0.86;79.83
34500;BME280;20745;50.882;6.962;2023-02-28T05:41:10;102292.75;;;0.82;80.22
34500;BME280;20745;50.882;6.962;2023-02-28T05:43:37;102303.28;;;0.83;79.62
34500;BME280;20745;50.882;6.962;2023-02-28T05:46:05;102309.56;;;0.82;80.38
34500;BME280;20745;50.882;6.962;2023-02-28T05:48:36;102304.34;;;0.96;81.99
34500;BME280;20745;50.882;6.962;2023-02-28T05:51:03;102309.47;;;1.16;83.54
34500;BME280;20745;50.882;6.962;2023-02-28T05:53:31;102311.31;;;1.31;82.22
34500;BME280;20745;50.882;6.962;2023-02-28T05:55:58;102311.13;;;1.34;82.31
34500;BME280;20745;50.882;6.962;2023-02-28T05:58:25;102313.47;;;1.40;80.45
34500;BME280;20745;50.882;6.962;2023-02-28T06:00:55;102310.81;;;1.40;79.03
34500;BME280;20745;50.882;6.962;2023-02-28T06:03:22;102314.91;;;1.30;79.05
34500;BME280;20745;50.882;6.962;2023-02-28T06:05:48;102312.34;;;1.29;78.87
34500;BME280;20745;50.882;6.962;2023-02-28T06:08:15;102316.44;;;1.19;78.84
34500;BME280;20745;50.882;6.962;2023-02-28T06:10:41;102310.09;;;1.21;78.00
34500;BME280;20745;50.882;6.962;2023-02-28T06:13:08;102307.34;;;1.23;78.47
34500;BME280;20745;50.882;6.962;2023-02-28T06:15:34;102309.13;;;1.22;78.33
34500;BME280;20745;50.882;6.962;2023-02-28T06:18:01;102315.75;;;1.15;78.16
34500;BME280;20745;50.882;6.962;2023-02-28T06:20:28;102314.03;;;1.14;78.19
34500;BME280;20745;50.882;6.962;2023-02-28T06:22:58;102314.03;;;1.14;77.97
34500;BME280;20745;50.882;6.962;2023-02-28T06:25:26;102313.88;;;1.17;77.76
34500;BME280;20745;50.882;6.962;2023-02-28T06:27:54;102318.94;;;1.22;77.33
34500;BME280;20745;50.882;6.962;2023-02-28T06:30:21;102331.53;;;1.18;77.32
34500;BME280;20745;50.882;6.962;2023-02-28T06:32:54;102326.38;;;1.15;77.14
34500;BME280;20745;50.882;6.962;2023-02-28T06:35:21;102336.69;;;1.21;77.24
34500;BME280;20745;50.882;6.962;2023-02-28T06:37:48;102299.03;;;0.96;76.57
34500;BME280;20745;50.882;6.962;2023-02-28T06:40:14;102333.41;;;1.16;76.74
34500;BME280;20745;50.882;6.962;2023-02-28T06:42:41;102342.34;;;1.15;76.14
34500;BME280;20745;50.882;6.962;2023-02-28T06:45:08;102345.63;;;1.20;76.34
34500;BME280;20745;50.882;6.962;2023-02-28T06:47:37;102340.47;;;1.17;76.40
34500;BME280;20745;50.882;6.962;2023-02-28T06:50:05;102352.66;;;1.21;76.50
34500;BME280;20745;50.882;6.962;2023-02-28T06:52:32;102353.44;;;1.23;76.54
34500;BME280;20745;50.882;6.962;2023-02-28T06:54:58;102343.22;;;1.16;76.55
34500;BME280;20745;50.882;6.962;2023-02-28T06:57:32;102358.31;;;1.15;75.97
34500;BME280;20745;50.882;6.962;2023-02-28T07:00:01;102358.38;;;1.14;76.20
34500;BME280;20745;50.882;6.962;2023-02-28T07:02:28;102357.53;;;1.13;75.67
34500;BME280;20745;50.882;6.962;2023-02-28T07:04:54;102364.50;;;1.16;75.94
34500;BME280;20745;50.882;6.962;2023-02-28T07:07:21;102358.06;;;1.20;75.71
34500;BME280;20745;50.882;6.962;2023-02-28T07:09:48;102356.28;;;1.20;75.51
34500;BME280;20745;50.882;6.962;2023-02-28T07:12:15;102354.22;;;1.25;75.43
34500;BME280;20745;50.882;6.962;2023-02-28T07:14:42;102370.03;;;1.28;74.74
34500;BME280;20745;50.882;6.962;2023-02-28T07:17:09;102363.16;;;1.24;74.68
34500;BME280;20745;50.882;6.962;2023-02-28T07:19:38;102367.13;;;1.33;74.59
34500;BME280;20745;50.882;6.962;2023-02-28T07:22:06;102371.31;;;1.37;73.97
34500;BME280;20745;50.882;6.962;2023-02-28T07:24:33;102370.47;;;1.36;73.94
34500;BME280;20745;50.882;6.962;2023-02-28T07:27:00;102372.03;;;1.40;73.87
34500;BME280;20745;50.882;6.962;2023-02-28T07:29:27;102376.16;;;1.46;73.25
34500;BME280;20745;50.882;6.962;2023-02-28T07:31:54;102373.50;;;1.46;72.89
34500;BME280;20745;50.882;6.962;2023-02-28T07:34:21;102368.69;;;1.52;73.19
34500;BME280;20745;50.882;6.962;2023-02-28T07:36:48;102372.31;;;1.51;72.11
34500;BME280;20745;50.882;6.962;2023-02-28T07:39:15;102362.44;;;1.53;72.08
34500;BME280;20745;50.882;6.962;2023-02-28T07:41:42;102375.06;;;1.50;70.97
34500;BME280;20745;50.882;6.962;2023-02-28T07:44:10;102375.47;;;1.58;71.70
34500;BME280;20745;50.882;6.962;2023-02-28T07:46:37;102367.25;;;1.62;71.24
34500;BME280;20745;50.882;6.962;2023-02-28T07:49:05;102364.41;;;1.65;70.86
34500;BME280;20745;50.882;6.962;2023-02-28T07:51:32;102364.06;;;1.71;70.12
34500;BME280;20745;50.882;6.962;2023-02-28T07:53:58;102363.75;;;1.77;69.34
34500;BME280;20745;50.882;6.962;2023-02-28T07:56:25;102369.75;;;1.81;69.05
34500;BME280;20745;50.882;6.962;2023-02-28T07:58:51;102371.97;;;1.88;68.66
34500;BME280;20745;50.882;6.962;2023-02-28T08:01:18;102368.03;;;1.95;68.42
34500;BME280;20745;50.882;6.962;2023-02-28T08:03:45;102377.56;;;1.99;67.12
34500;BME280;20745;50.882;6.962;2023-02-28T08:06:20;102370.34;;;2.01;66.39
34500;BME280;20745;50.882;6.962;2023-02-28T08:08:48;102379.63;;;2.10;66.13
34500;BME280;20745;50.882;6.962;2023-02-28T08:11:15;102368.88;;;2.11;65.55
34500;BME280;20745;50.882;6.962;2023-02-28T08:13:43;102362.34;;;2.17;64.96
34500;BME280;20745;50.882;6.962;2023-02-28T08:16:11;102373.00;;;2.17;64.49
34500;BME280;20745;50.882;6.962;2023-02-28T08:18:41;102376.19;;;2.23;63.56
34500;BME280;20745;50.882;6.962;2023-02-28T08:21:09;102371.09;;;2.34;64.16
34500;BME280;20745;50.882;6.962;2023-02-28T08:23:36;102377.47;;;2.32;62.38
34500;BME280;20745;50.882;6.962;2023-02-28T08:26:03;102374.16;;;2.42;62.73
34500;BME280;20745;50.882;6.962;2023-02-28T08:28:30;102380.91;;;2.48;62.25
34500;BME280;20745;50.882;6.962;2023-02-28T08:30:57;102373.97;;;2.45;61.27
34500;BME280;20745;50.882;6.962;2023-02-28T08:33:25;102381.34;;;2.56;61.68
34500;BME280;20745;50.882;6.962;2023-02-28T08:35:53;102370.50;;;2.59;61.40
34500;BME280;20745;50.882;6.962;2023-02-28T08:38:20;102387.09;;;2.64;59.67
34500;BME280;20745;50.882;6.962;2023-02-28T08:40:47;102383.19;;;2.70;60.42
34500;BME280;20745;50.882;6.962;2023-02-28T08:43:13;102389.91;;;2.77;60.50
34500;BME280;20745;50.882;6.962;2023-02-28T08:45:40;102379.97;;;2.79;59.11
34500;BME280;20745;50.882;6.962;2023-02-28T08:48:07;102385.50;;;2.76;58.13
34500;BME280;20745;50.882;6.962;2023-02-28T08:50:33;102373.13;;;2.75;58.47
34500;BME280;20745;50.882;6.962;2023-02-28T08:53:00;102380.59;;;2.84;58.16
34500;BME280;20745;50.882;6.962;2023-02-28T08:55:26;102392.44;;;2.94;59.18
34500;BME280;20745;50.882;6.962;2023-02-28T08:57:53;102378.50;;;3.03;58.19
34500;BME280;20745;50.882;6.962;2023-02-28T09:00:21;102376.44;;;3.08;58.18
34500;BME280;20745;50.882;6.962;2023-02-28T09:02:48;102381.75;;;3.08;57.96
34500;BME280;20745;50.882;6.962;2023-02-28T09:05:15;102386.75;;;3.14;57.14
34500;BME280;20745;50.882;6.962;2023-02-28T09:07:41;102384.91;;;3.14;57.23
34500;BME280;20745;50.882;6.962;2023-02-28T09:10:09;102377.69;;;3.16;57.38
34500;BME280;20745;50.882;6.962;2023-02-28T09:12:35;102386.13;;;3.09;55.88
34500;BME280;20745;50.882;6.962;2023-02-28T09:15:03;102381.00;;;3.20;55.61
34500;BME280;20745;50.882;6.962;2023-02-28T09:17:29;102369.09;;;3.25;55.32
34500;BME280;20745;50.882;6.962;2023-02-28T09:19:57;102379.59;;;3.28;55.44
34500;BME280;20745;50.882;6.962;2023-02-28T09:22:24;102373.84;;;3.34;55.56
34500;BME280;20745;50.882;6.962;2023-02-28T09:24:50;102372.59;;;3.40;55.34
34500;BME280;20745;50.882;6.962;2023-02-28T09:27:17;102375.09;;;3.43;55.71
34500;BME280;20745;50.882;6.962;2023-02-28T09:29:43;102374.06;;;3.45;54.88
34500;BME280;20745;50.882;6.962;2023-02-28T09:32:10;102367.28;;;3.54;55.62
34500;BME280;20745;50.882;6.962;2023-02-28T09:34:37;102368.31;;;3.51;55.56
34500;BME280;20745;50.882;6.962;2023-02-28T09:37:04;102371.56;;;3.56;54.50
34500;BME280;20745;50.882;6.962;2023-02-28T09:39:30;102361.06;;;3.53;54.54
34500;BME280;20745;50.882;6.962;2023-02-28T09:41:58;102366.13;;;3.58;54.83
34500;BME280;20745;50.882;6.962;2023-02-28T09:44:43;102355.16;;;3.62;54.90
34500;BME280;20745;50.882;6.962;2023-02-28T09:47:27;102366.41;;;3.67;54.38
34500;BME280;20745;50.882;6.962;2023-02-28T09:49:59;102360.97;;;3.69;53.67
34500;BME280;20745;50.882;6.962;2023-02-28T09:52:31;102366.31;;;3.69;53.24
34500;BME280;20745;50.882;6.962;2023-02-28T09:55:19;102364.41;;;3.71;53.86
34500;BME280;20745;50.882;6.962;2023-02-28T09:57:46;102362.66;;;3.70;53.65
34500;BME280;20745;50.882;6.962;2023-02-28T10:00:26;102369.06;;;3.67;53.74
34500;BME280;20745;50.882;6.962;2023-02-28T10:03:10;102363.44;;;3.72;53.50
34500;BME280;20745;50.882;6.962;2023-02-28T10:05:43;102363.34;;;3.73;54.39
34500;BME280;20745;50.882;6.962;2023-02-28T10:08:21;102360.38;;;3.78;54.49
34500;BME280;20745;50.882;6.962;2023-02-28T10:10:57;102359.03;;;3.85;54.88
34500;BME280;20745;50.882;6.962;2023-02-28T10:13:49;102366.28;;;3.83;53.65
34500;BME280;20745;50.882;6.962;2023-02-28T10:16:24;102354.44;;;3.87;54.29
34500;BME280;20745;50.882;6.962;2023-02-28T10:19:12;102364.72;;;3.93;54.34
34500;BME280;20745;50.882;6.962;2023-02-28T10:21:46;102346.97;;;3.92;54.39
34500;BME280;20745;50.882;6.962;2023-02-28T10:24:29;102353.63;;;3.99;53.60
34500;BME280;20745;50.882;6.962;2023-02-28T10:27:01;102354.56;;;4.12;54.39
34500;BME280;20745;50.882;6.962;2023-02-28T10:29:32;102350.38;;;4.08;53.86
34500;BME280;20745;50.882;6.962;2023-02-28T10:32:01;102352.66;;;4.14;53.69
34500;BME280;20745;50.882;6.962;2023-02-28T10:34:28;102352.84;;;4.11;53.99
34500;BME280;20745;50.882;6.962;2023-02-28T10:36:55;102341.56;;;4.20;53.93
34500;BME280;20745;50.882;6.962;2023-02-28T10:39:40;102361.94;;;4.08;53.12
34500;BME280;20745;50.882;6.962;2023-02-28T10:42:26;102353.84;;;4.22;53.45
34500;BME280;20745;50.882;6.962;2023-02-28T10:45:16;102346.28;;;4.29;53.68
34500;BME280;20745;50.882;6.962;2023-02-28T10:47:58;102348.44;;;4.36;54.23
34500;BME280;20745;50.882;6.962;2023-02-28T10:55:41;102331.88;;;4.44;53.17
34500;BME280;20745;50.882;6.962;2023-02-28T10:58:25;102330.50;;;4.38;53.19
34500;BME280;20745;50.882;6.962;2023-02-28T11:00:52;102331.22;;;4.40;53.19
34500;BME280;20745;50.882;6.962;2023-02-28T11:03:34;102320.81;;;4.36;52.45
34500;BME280;20745;50.882;6.962;2023-02-28T11:06:06;102329.00;;;4.47;53.26
34500;BME280;20745;50.882;6.962;2023-02-28T11:08:34;102333.91;;;4.53;53.05
34500;BME280;20745;50.882;6.962;2023-02-28T11:11:10;102324.41;;;4.49;53.35
34500;BME280;20745;50.882;6.962;2023-02-28T11:13:36;102308.41;;;4.35;53.27
34500;BME280;20745;50.882;6.962;2023-02-28T11:16:09;102323.97;;;4.42;54.23
34500;BME280;20745;50.882;6.962;2023-02-28T11:18:49;102325.38;;;4.48;53.25
34500;BME280;20745;50.882;6.962;2023-02-28T11:23:55;102316.06;;;4.66;52.31
34500;BME280;20745;50.882;6.962;2023-02-28T11:26:38;102316.00;;;4.80;53.18
34500;BME280;20745;50.882;6.962;2023-02-28T11:29:11;102303.34;;;4.82;52.20
34500;BME280;20745;50.882;6.962;2023-02-28T11:31:38;102307.75;;;4.95;52.51
34500;BME280;20745;50.882;6.962;2023-02-28T11:34:23;102314.59;;;5.12;52.61
34500;BME280;20745;50.882;6.962;2023-02-28T11:36:52;102315.03;;;5.19;52.43
34500;BME280;20745;50.882;6.962;2023-02-28T11:39:19;102308.59;;;5.21;51.38
34500;BME280;20745;50.882;6.962;2023-02-28T11:47:33;102311.59;;;5.29;50.31
34500;BME280;20745;50.882;6.962;2023-02-28T11:52:42;102315.88;;;5.32;50.42
34500;BME280;20745;50.882;6.962;2023-02-28T12:00:42;102317.81;;;5.17;51.16
34500;BME280;20745;50.882;6.962;2023-02-28T12:03:19;102311.41;;;5.07;50.56
34500;BME280;20745;50.882;6.962;2023-02-28T12:05:57;102307.09;;;5.04;51.55
34500;BME280;20745;50.882;6.962;2023-02-28T12:08:34;102311.91;;;5.12;52.24
34500;BME280;20745;50.882;6.962;2023-02-28T12:11:16;102304.84;;;5.24;51.81
34500;BME280;20745;50.882;6.962;2023-02-28T12:19:21;102298.50;;;5.25;51.43
34500;BME280;20745;50.882;6.962;2023-02-28T12:27:19;102289.63;;;5.24;51.06
34500;BME280;20745;50.882;6.962;2023-02-28T12:30:13;102290.03;;;5.31;51.13
34500;BME280;20745;50.882;6.962;2023-02-28T12:32:45;102291.66;;;5.33;51.13
34500;BME280;20745;50.882;6.962;2023-02-28T12:35:15;102286.16;;;5.35;50.89
34500;BME280;20745;50.882;6.962;2023-02-28T12:37:58;102274.91;;;5.42;51.31
34500;BME280;20745;50.882;6.962;2023-02-28T12:40:41;102282.94;;;5.42;50.28
34500;BME280;20745;50.882;6.962;2023-02-28T12:43:12;102273.00;;;5.44;49.69
34500;BME280;20745;50.882;6.962;2023-02-28T12:45:47;102279.63;;;5.51;50.84
34500;BME280;20745;50.882;6.962;2023-02-28T12:48:26;102278.94;;;5.60;50.73
34500;BME280;20745;50.882;6.962;2023-02-28T12:50:55;102273.06;;;5.55;50.91
34500;BME280;20745;50.882;6.962;2023-02-28T12:53:31;102261.69;;;5.64;51.37
34500;BME280;20745;50.882;6.962;2023-02-28T12:56:27;102248.22;;;5.53;50.50
34500;BME280;20745;50.882;6.962;2023-02-28T12:59:02;102263.16;;;5.68;51.00
34500;BME280;20745;50.882;6.962;2023-02-28T13:01:49;102262.28;;;5.68;50.22
34500;BME280;20745;50.882;6.962;2023-02-28T13:10:16;102239.56;;;5.73;52.11
34500;BME280;20745;50.882;6.962;2023-02-28T13:12:53;102245.88;;;5.72;52.14
34500;BME280;20745;50.882;6.962;2023-02-28T13:15:24;102245.41;;;5.78;51.90
34500;BME280;20745;50.882;6.962;2023-02-28T13:18:00;102232.78;;;5.80;52.04
34500;BME280;20745;50.882;6.962;2023-02-28T13:20:34;102228.59;;;5.76;52.29
34500;BME280;20745;50.882;6.962;2023-02-28T13:23:01;102228.25;;;5.81;52.29
34500;BME280;20745;50.882;6.962;2023-02-28T13:31:15;102228.47;;;5.78;52.32
34500;BME280;20745;50.882;6.962;2023-02-28T13:36:25;102216.69;;;5.80;52.99
34500;BME280;20745;50.882;6.962;2023-02-28T13:38:56;102232.84;;;5.91;52.80
34500;BME280;20745;50.882;6.962;2023-02-28T13:46:34;102224.84;;;6.02;51.72
34500;BME280;20745;50.882;6.962;2023-02-28T13:49:25;102213.31;;;5.89;50.57
34500;BME280;20745;50.882;6.962;2023-02-28T13:51:54;102217.25;;;5.96;50.95
34500;BME280;20745;50.882;6.962;2023-02-28T13:57:17;102197.56;;;6.08;51.23
34500;BME280;20745;50.882;6.962;2023-02-28T14:06:29;102208.81;;;6.13;51.13
34500;BME280;20745;50.882;6.962;2023-02-28T14:09:05;102209.53;;;6.15;50.48
34500;BME280;20745;50.882;6.962;2023-02-28T14:11:38;102205.25;;;6.13;49.77
34500;BME280;20745;50.882;6.962;2023-02-28T14:14:07;102202.94;;;6.08;49.44
34500;BME280;20745;50.882;6.962;2023-02-28T14:16:43;102202.47;;;6.14;50.11
34500;BME280;20745;50.882;6.962;2023-02-28T14:19:14;102200.50;;;6.16;50.82
34500;BME280;20745;50.882;6.962;2023-02-28T14:28:03;102185.91;;;6.20;50.25
34500;BME280;20745;50.882;6.962;2023-02-28T14:30:48;102188.69;;;6.19;50.17
34500;BME280;20745;50.882;6.962;2023-02-28T14:36:12;102195.88;;;6.18;50.42
34500;BME280;20745;50.882;6.962;2023-02-28T14:38:45;102189.06;;;6.25;51.34
34500;BME280;20745;50.882;6.962;2023-02-28T14:41:17;102174.31;;;6.20;50.54
34500;BME280;20745;50.882;6.962;2023-02-28T14:43:51;102184.09;;;6.32;50.18
34500;BME280;20745;50.882;6.962;2023-02-28T14:46:18;102184.94;;;6.32;50.76
34500;BME280;20745;50.882;6.962;2023-02-28T14:48:48;102191.16;;;6.33;50.86
34500;BME280;20745;50.882;6.962;2023-02-28T14:51:21;102188.59;;;6.31;50.70
34500;BME280;20745;50.882;6.962;2023-02-28T14:53:51;102177.22;;;6.17;50.04